createdAt,value
2018-02-11T00:02:16.345Z,98872.67
2018-02-11T00:04:44.906Z,98880.70
2018-02-11T00:07:13.451Z,98885.87
2018-02-11T00:09:42.144Z,98883.00
2018-02-11T00:12:10.685Z,98887.27
2018-02-11T00:14:39.239Z,98891.02
2018-02-11T00:17:07.825Z,98892.61
2018-02-11T00:19:36.374Z,98896.59
2018-02-11T00:22:04.920Z,98893.92
2018-02-11T00:24:34.590Z,98892.66
2018-02-11T00:27:03.138Z,98885.96
2018-02-11T00:29:32.437Z,98885.03
2018-02-11T00:32:01.048Z,98878.16
2018-02-11T00:34:29.588Z,98873.33
2018-02-11T00:36:58.896Z,98870.80
2018-02-11T00:39:27.492Z,98863.80
2018-02-11T00:41:56.029Z,98866.84
2018-02-11T00:44:24.567Z,98872.94
2018-02-11T00:46:53.373Z,98855.06
2018-02-11T00:49:21.921Z,98858.24
2018-02-11T00:51:51.283Z,98857.62
2018-02-11T00:54:20.040Z,98860.18
2018-02-11T00:56:48.592Z,98861.94
2018-02-11T00:59:17.896Z,98858.55
2018-02-11T01:01:47.344Z,98854.46
2018-02-11T01:04:15.884Z,98856.38
2018-02-11T01:06:44.419Z,98851.80
2018-02-11T01:09:13.191Z,98859.86
2018-02-11T01:11:41.737Z,98857.80
2018-02-11T01:14:10.292Z,98864.23
2018-02-11T01:16:38.982Z,98861.16
2018-02-11T01:19:08.305Z,98856.66
2018-02-11T01:21:36.854Z,98858.08
2018-02-11T01:24:05.464Z,98851.32
2018-02-11T01:26:34.781Z,98859.69
2018-02-11T01:29:03.325Z,98858.09
2018-02-11T01:31:32.076Z,98853.69
2018-02-11T01:34:00.620Z,98851.46
2018-02-11T01:36:30.040Z,98849.53
2018-02-11T01:38:58.649Z,98848.13
2018-02-11T01:41:27.194Z,98845.86
2018-02-11T01:43:55.735Z,98850.08
2018-02-11T01:46:24.500Z,98836.59
2018-02-11T01:48:56.072Z,98836.97
2018-02-11T01:51:24.666Z,98829.03
2018-02-11T01:53:53.220Z,98836.39
2018-02-11T01:56:21.762Z,98829.16
2018-02-11T01:58:50.459Z,98832.37
2018-02-11T02:01:19.010Z,98836.68
2018-02-11T02:03:48.386Z,98822.98
2018-02-11T02:06:17.084Z,98825.25
2018-02-11T02:08:45.624Z,98832.94
2018-02-11T02:11:14.173Z,98831.69
2018-02-11T02:13:43.530Z,98829.21
2018-02-11T02:16:12.077Z,98824.12
2018-02-11T02:18:40.624Z,98822.38
2018-02-11T02:21:10.326Z,98826.68
2018-02-11T02:23:38.922Z,98819.84
2018-02-11T02:26:08.236Z,98816.08
2018-02-11T02:28:37.785Z,98822.20
2018-02-11T02:31:06.333Z,98821.22
2018-02-11T02:33:35.650Z,98815.47
2018-02-11T02:36:04.331Z,98827.98
2018-02-11T02:38:32.889Z,98827.14
2018-02-11T02:41:02.194Z,98818.19
2018-02-11T02:43:31.565Z,98814.56
2018-02-11T02:46:00.104Z,98815.24
2018-02-11T02:48:28.647Z,98816.84
2018-02-11T02:50:57.402Z,98813.56
2018-02-11T02:53:25.952Z,98820.86
2018-02-11T02:55:54.495Z,98816.13
2018-02-11T02:58:23.083Z,98812.60
2018-02-11T03:00:51.652Z,98809.02
2018-02-11T03:03:20.215Z,98811.03
2018-02-11T03:05:49.104Z,98806.13
2018-02-11T03:08:17.655Z,98801.23
2018-02-11T03:10:46.203Z,98804.48
2018-02-11T03:13:14.800Z,98800.33
2018-02-11T03:15:44.112Z,98791.16
2018-02-11T03:18:12.666Z,98791.22
2018-02-11T03:20:41.498Z,98792.27
2018-02-11T03:23:10.049Z,98786.80
2018-02-11T03:25:39.364Z,98788.30
2018-02-11T03:28:08.098Z,98794.94
2018-02-11T03:30:36.646Z,98789.56
2018-02-11T03:33:05.192Z,98793.95
2018-02-11T03:35:34.869Z,98789.03
2018-02-11T03:38:03.423Z,98794.63
2018-02-11T03:40:32.004Z,98792.66
2018-02-11T03:43:00.928Z,98793.73
2018-02-11T03:45:29.468Z,98798.06
2018-02-11T03:47:58.778Z,98795.16
2018-02-11T03:50:27.364Z,98793.69
2018-02-11T03:52:55.908Z,98799.23
2018-02-11T03:55:24.455Z,98802.14
2018-02-11T03:57:53.048Z,98804.28
2018-02-11T04:00:22.356Z,98813.64
2018-02-11T04:02:50.896Z,98803.98
2018-02-11T04:05:19.760Z,98796.61
2018-02-11T04:07:49.069Z,98794.05
2018-02-11T04:10:18.380Z,98796.36
2018-02-11T04:12:47.203Z,98792.24
2018-02-11T04:15:15.748Z,98792.70
2018-02-11T04:17:45.206Z,98788.84
2018-02-11T04:20:13.792Z,98788.88
2018-02-11T04:22:42.332Z,98790.60
2018-02-11T04:25:10.875Z,98784.80
2018-02-11T04:27:40.449Z,98786.50
2018-02-11T04:30:08.991Z,98785.52
2018-02-11T04:32:37.538Z,98784.20
2018-02-11T04:35:06.237Z,98785.25
2018-02-11T04:37:35.548Z,98780.30
2018-02-11T04:40:04.865Z,98781.76
2018-02-11T04:42:33.689Z,98782.91
2018-02-11T04:45:02.228Z,98779.01
2018-02-11T04:47:30.771Z,98776.90
2018-02-11T04:49:59.387Z,98771.50
2018-02-11T04:52:28.691Z,98776.28
2018-02-11T04:54:57.229Z,98773.49
2018-02-11T04:57:25.924Z,98777.77
2018-02-11T04:59:54.459Z,98780.27
2018-02-11T05:02:22.991Z,98788.59
2018-02-11T05:04:51.752Z,98786.37
2018-02-11T05:07:20.292Z,98790.15
2018-02-11T05:09:49.604Z,98790.17
2018-02-11T05:12:18.188Z,98791.13
2018-02-11T05:14:46.734Z,98800.66
2018-02-11T05:17:15.276Z,98795.42
2018-02-11T05:19:43.996Z,98796.98
2018-02-11T05:22:12.532Z,98800.27
2018-02-11T05:24:41.072Z,98802.34
2018-02-11T05:27:09.924Z,98808.22
2018-02-11T05:29:38.466Z,98806.63
2018-02-11T05:32:07.776Z,98803.97
2018-02-11T05:34:36.356Z,98793.83
2018-02-11T05:37:04.905Z,98805.11
2018-02-11T05:39:33.465Z,98804.52
2018-02-11T05:42:02.052Z,98802.36
2018-02-11T05:44:30.592Z,98804.13
2018-02-11T05:46:59.140Z,98802.69
2018-02-11T05:49:28.612Z,98805.45
2018-02-11T05:51:57.154Z,98801.80
2018-02-11T05:54:25.730Z,98802.14
2018-02-11T05:56:55.185Z,98805.75
2018-02-11T05:59:23.720Z,98809.51
2018-02-11T06:01:53.024Z,98813.70
2018-02-11T06:04:22.395Z,98813.83
2018-02-11T06:06:50.941Z,98811.82
2018-02-11T06:09:19.483Z,98814.31
2018-02-11T06:11:48.853Z,98813.13
2018-02-11T06:14:17.388Z,98814.84
2018-02-11T06:16:45.927Z,98814.34
2018-02-11T06:19:14.524Z,98810.53
2018-02-11T06:21:43.836Z,98812.39
2018-02-11T06:24:13.144Z,98814.25
2018-02-11T06:26:43.498Z,98816.45
2018-02-11T06:29:12.051Z,98815.28
2018-02-11T06:31:40.599Z,98811.33
2018-02-11T06:34:09.183Z,98817.86
2018-02-11T06:36:37.724Z,98819.05
2018-02-11T06:39:06.283Z,98815.16
2018-02-11T06:41:35.634Z,98821.09
2018-02-11T06:44:04.171Z,98818.19
2018-02-11T06:46:32.766Z,98823.34
2018-02-11T06:49:01.481Z,98815.66
2018-02-11T06:51:30.036Z,98815.47
2018-02-11T06:53:58.596Z,98811.77
2018-02-11T06:56:28.157Z,98807.81
2018-02-11T06:58:56.720Z,98811.47
2018-02-11T07:01:25.273Z,98810.44
2018-02-11T07:03:53.884Z,98811.33
2018-02-11T07:06:22.429Z,98812.33
2018-02-11T07:08:51.730Z,98805.56
2018-02-11T07:11:21.086Z,98811.92
2018-02-11T07:13:49.633Z,98808.71
2018-02-11T07:16:18.188Z,98807.73
2018-02-11T07:18:47.008Z,98805.98
2018-02-11T07:21:15.552Z,98808.29
2018-02-11T07:23:44.102Z,98805.87
2018-02-11T07:26:13.071Z,98809.16
2018-02-11T07:28:41.616Z,98807.34
2018-02-11T07:31:10.169Z,98811.50
2018-02-11T07:33:39.041Z,98811.24
2018-02-11T07:36:07.596Z,98814.70
2018-02-11T07:38:36.142Z,98806.99
2018-02-11T07:41:05.507Z,98810.95
2018-02-11T07:43:34.053Z,98812.77
2018-02-11T07:46:02.649Z,98805.72
2018-02-11T07:48:31.449Z,98810.67
2018-02-11T07:51:00.007Z,98812.40
2018-02-11T07:53:28.560Z,98818.69
2018-02-11T07:55:58.014Z,98814.92
2018-02-11T07:58:26.557Z,98815.72
2018-02-11T08:00:55.889Z,98814.05
2018-02-11T08:03:24.485Z,98817.78
2018-02-11T08:05:53.033Z,98816.62
2018-02-11T08:08:21.609Z,98813.42
2018-02-11T08:10:50.973Z,98812.91
2018-02-11T08:13:19.557Z,98816.38
2018-02-11T08:15:48.115Z,98820.50
2018-02-11T08:18:16.810Z,98817.20
2018-02-11T08:20:45.352Z,98817.86
2018-02-11T08:23:13.884Z,98823.30
2018-02-11T08:25:42.589Z,98824.33
2018-02-11T08:28:12.012Z,98819.31
2018-02-11T08:30:41.328Z,98822.34
2018-02-11T08:33:10.157Z,98826.34
2018-02-11T08:35:38.705Z,98823.84
2018-02-11T08:38:07.252Z,98832.02
2018-02-11T08:40:36.921Z,98830.23
2018-02-11T08:43:05.477Z,98829.66
2018-02-11T08:45:34.025Z,98838.72
2018-02-11T08:48:02.771Z,98837.85
2018-02-11T08:50:31.316Z,98839.21
2018-02-11T08:52:59.875Z,98836.59
2018-02-11T08:55:28.568Z,98845.02
2018-02-11T08:57:57.889Z,98846.73
2018-02-11T09:00:26.441Z,98849.58
2018-02-11T09:02:55.315Z,98850.69
2018-02-11T09:05:23.871Z,98856.61
2018-02-11T09:07:52.421Z,98856.36
2018-02-11T09:10:21.021Z,98854.80
2018-02-11T09:12:49.624Z,98864.72
2018-02-11T09:15:18.164Z,98863.70
2018-02-11T09:17:46.767Z,98860.89
2018-02-11T09:20:15.323Z,98860.61
2018-02-11T09:22:43.872Z,98859.94
2018-02-11T09:25:13.253Z,98857.01
2018-02-11T09:27:41.819Z,98860.34
2018-02-11T09:30:10.361Z,98860.95
2018-02-11T09:32:40.137Z,98863.20
2018-02-11T09:35:09.456Z,98868.27
2018-02-11T09:37:38.781Z,98865.44
2018-02-11T09:40:07.660Z,98870.81
2018-02-11T09:42:36.227Z,98867.09
2018-02-11T09:45:05.540Z,98866.91
2018-02-11T09:47:35.011Z,98865.67
2018-02-11T09:50:03.604Z,98860.03
2018-02-11T09:52:32.154Z,98859.12
2018-02-11T09:55:00.938Z,98861.66
2018-02-11T09:57:29.489Z,98865.81
2018-02-11T09:59:58.040Z,98858.77
2018-02-11T10:02:27.511Z,98859.44
2018-02-11T10:04:56.059Z,98860.45
2018-02-11T10:07:24.612Z,98856.00
2018-02-11T10:09:54.084Z,98860.62
2018-02-11T10:12:22.660Z,98854.04
2018-02-11T10:14:51.214Z,98858.53
2018-02-11T10:17:19.814Z,98863.63
2018-02-11T10:19:48.367Z,98859.45
2018-02-11T10:22:17.692Z,98864.19
2018-02-11T10:24:46.296Z,98864.09
2018-02-11T10:27:16.565Z,98866.48
2018-02-11T10:29:45.940Z,98866.41
2018-02-11T10:32:14.511Z,98867.47
2018-02-11T10:34:43.068Z,98862.16
2018-02-11T10:37:11.805Z,98858.72
2018-02-11T10:39:41.129Z,98862.33
2018-02-11T10:42:09.676Z,98860.57
2018-02-11T10:44:38.448Z,98857.70
2018-02-11T10:47:07.004Z,98860.92
2018-02-11T10:49:35.554Z,98862.20
2018-02-11T10:52:04.917Z,98860.23
2018-02-11T10:54:33.460Z,98859.86
2018-02-11T10:57:02.036Z,98860.13
2018-02-11T10:59:31.392Z,98857.48
2018-02-11T11:01:59.963Z,98858.05
2018-02-11T11:04:28.581Z,98862.30
2018-02-11T11:06:58.050Z,98864.33
2018-02-11T11:09:26.604Z,98860.73
2018-02-11T11:11:55.161Z,98858.86
2018-02-11T11:14:24.539Z,98857.91
2018-02-11T11:16:53.085Z,98853.52
2018-02-11T11:19:21.641Z,98851.20
2018-02-11T11:21:50.341Z,98853.75
2018-02-11T11:24:18.899Z,98848.53
2018-02-11T11:26:48.212Z,98845.30
2018-02-11T11:29:16.892Z,98846.48
2018-02-11T11:31:45.442Z,98843.51
2018-02-11T11:34:14.021Z,98845.30
2018-02-11T11:36:43.017Z,98846.74
2018-02-11T11:39:11.578Z,98843.70
2018-02-11T11:41:40.128Z,98839.64
2018-02-11T11:44:09.054Z,98841.21
2018-02-11T11:46:37.614Z,98835.67
2018-02-11T11:49:06.173Z,98836.05
2018-02-11T11:51:34.926Z,98835.94
2018-02-11T11:54:03.489Z,98837.25
2018-02-11T11:56:32.813Z,98843.11
2018-02-11T11:59:01.619Z,98844.59
2018-02-11T12:01:30.170Z,98845.22
2018-02-11T12:03:58.728Z,98849.15
2018-02-11T12:06:28.492Z,98849.86
2018-02-11T12:08:57.046Z,98848.02
2018-02-11T12:11:25.600Z,98844.16
2018-02-11T12:13:55.061Z,98850.04
2018-02-11T12:16:23.601Z,98845.99
2018-02-11T12:18:52.140Z,98848.59
2018-02-11T12:21:20.760Z,98849.72
2018-02-11T12:23:50.404Z,98852.02
2018-02-11T12:26:18.944Z,98847.05
2018-02-11T12:28:48.580Z,98852.32
2018-02-11T12:31:17.439Z,98853.69
2018-02-11T12:33:46.749Z,98858.70
2018-02-11T12:36:15.438Z,98859.25
2018-02-11T12:38:43.981Z,98854.60
2018-02-11T12:41:12.532Z,98855.94
2018-02-11T12:43:41.438Z,98858.20
2018-02-11T12:46:09.973Z,98864.64
2018-02-11T12:48:39.332Z,98860.55
2018-02-11T12:51:07.933Z,98860.52
2018-02-11T12:53:38.162Z,98860.41
2018-02-11T12:56:07.504Z,98861.30
2018-02-11T12:58:36.121Z,98863.65
2018-02-11T13:01:04.692Z,98872.52
2018-02-11T13:03:33.244Z,98881.39
2018-02-11T13:06:02.066Z,98872.56
2018-02-11T13:08:30.621Z,98870.73
2018-02-11T13:11:01.991Z,98879.87
2018-02-11T13:13:30.935Z,98870.48
2018-02-11T13:16:00.248Z,98875.41
2018-02-11T13:18:28.795Z,98874.32
2018-02-11T13:20:57.512Z,98876.27
2018-02-11T13:23:26.059Z,98876.42
2018-02-11T13:25:55.454Z,98875.77
2018-02-11T13:28:24.226Z,98878.36
2018-02-11T13:30:52.768Z,98876.14
2018-02-11T13:33:21.309Z,98875.64
2018-02-11T13:35:49.898Z,98875.83
2018-02-11T13:38:18.452Z,98883.45
2018-02-11T13:40:47.027Z,98883.27
2018-02-11T13:43:15.629Z,98879.44
2018-02-11T13:45:44.228Z,98883.29
2018-02-11T13:48:12.796Z,98886.61
2018-02-11T13:50:41.576Z,98892.58
2018-02-11T13:53:10.156Z,98891.23
2018-02-11T13:55:38.712Z,98898.83
2018-02-11T13:58:07.300Z,98894.38
2018-02-11T14:00:35.847Z,98892.25
2018-02-11T14:03:05.156Z,98900.28
2018-02-11T14:05:34.608Z,98896.39
2018-02-11T14:08:03.158Z,98899.03
2018-02-11T14:10:31.690Z,98896.73
2018-02-11T14:13:00.384Z,98898.76
2018-02-11T14:15:28.944Z,98899.84
2018-02-11T14:17:57.488Z,98907.27
2018-02-11T14:20:26.077Z,98908.12
2018-02-11T14:22:54.616Z,98906.64
2018-02-11T14:25:23.169Z,98905.81
2018-02-11T14:27:51.864Z,98899.83
2018-02-11T14:30:20.443Z,98906.79
2018-02-11T14:32:48.991Z,98903.15
2018-02-11T14:35:17.916Z,98908.47
2018-02-11T14:37:47.272Z,98909.25
2018-02-11T14:40:16.583Z,98909.25
2018-02-11T14:42:45.295Z,98905.75
2018-02-11T14:45:13.857Z,98912.34
2018-02-11T14:47:42.408Z,98909.19
2018-02-11T14:50:11.916Z,98915.25
2018-02-11T14:52:42.103Z,98907.28
2018-02-11T14:55:10.652Z,98913.63
2018-02-11T14:57:39.252Z,98915.03
2018-02-11T15:00:07.809Z,98916.27
2018-02-11T15:02:36.386Z,98914.09
2018-02-11T15:05:05.484Z,98914.11
2018-02-11T15:07:34.026Z,98917.47
2018-02-11T15:10:04.484Z,98921.61
2018-02-11T15:12:33.936Z,98920.41
2018-02-11T15:15:02.481Z,98924.47
2018-02-11T15:17:31.034Z,98929.34
2018-02-11T15:20:00.611Z,98930.08
2018-02-11T15:22:31.468Z,98930.62
2018-02-11T15:25:00.070Z,98934.98
2018-02-11T15:27:29.388Z,98940.63
2018-02-11T15:29:58.379Z,98936.48
2018-02-11T15:32:27.083Z,98942.72
2018-02-11T15:34:55.640Z,98945.55
2018-02-11T15:37:25.158Z,98948.42
2018-02-11T15:39:53.776Z,98955.23
2018-02-11T15:42:22.323Z,98952.16
2018-02-11T15:44:51.475Z,98953.41
2018-02-11T15:47:20.192Z,98957.51
2018-02-11T15:49:48.748Z,98959.03
2018-02-11T15:52:17.512Z,98960.15
2018-02-11T15:54:46.105Z,98962.59
2018-02-11T15:57:14.653Z,98966.21
2018-02-11T15:59:43.205Z,98965.73
2018-02-11T16:02:12.588Z,98973.93
2018-02-11T16:04:41.143Z,98977.45
2018-02-11T16:07:09.706Z,98979.56
2018-02-11T16:09:38.428Z,98980.39
2018-02-11T16:12:07.001Z,98982.65
2018-02-11T16:14:35.562Z,98992.34
2018-02-11T16:17:04.312Z,98984.73
2018-02-11T16:19:33.634Z,98993.73
2018-02-11T16:22:02.197Z,98995.45
2018-02-11T16:24:31.669Z,99004.86
2018-02-11T16:27:00.236Z,99008.80
2018-02-11T16:29:31.955Z,99014.89
2018-02-11T16:32:00.505Z,99018.80
2018-02-11T16:34:29.828Z,99019.69
2018-02-11T16:36:58.532Z,99024.66
2018-02-11T16:39:27.089Z,99030.93
2018-02-11T16:41:56.411Z,99034.45
2018-02-11T16:44:25.109Z,99037.52
2018-02-11T16:46:53.668Z,99039.00
2018-02-11T16:49:23.338Z,99045.02
2018-02-11T16:51:52.467Z,99043.83
2018-02-11T16:54:21.024Z,99051.20
2018-02-11T16:56:49.586Z,99058.86
2018-02-11T16:59:19.406Z,99053.30
2018-02-11T17:01:47.961Z,99055.26
2018-02-11T17:04:16.513Z,99056.15
2018-02-11T17:06:45.360Z,99060.06
2018-02-11T17:09:13.925Z,99057.62
2018-02-11T17:11:42.518Z,99065.74
2018-02-11T17:14:11.508Z,99066.24
2018-02-11T17:16:40.053Z,99065.42
2018-02-11T17:19:08.599Z,99069.61
2018-02-11T17:21:37.477Z,99066.85
2018-02-11T17:24:06.020Z,99067.28
2018-02-11T17:26:34.582Z,99076.52
2018-02-11T17:29:04.084Z,99080.94
2018-02-11T17:31:33.392Z,99079.45
2018-02-11T17:34:02.705Z,99085.84
2018-02-11T17:36:31.525Z,99086.11
2018-02-11T17:39:00.077Z,99086.47
2018-02-11T17:41:28.629Z,99084.66
2018-02-11T17:43:58.237Z,99085.29
2018-02-11T17:46:27.549Z,99092.29
2018-02-11T17:48:56.105Z,99099.46
2018-02-11T17:51:24.708Z,99100.67
2018-02-11T17:53:54.020Z,99102.98
2018-02-11T17:56:23.342Z,99101.48
2018-02-11T17:58:51.969Z,99104.78
2018-02-11T18:01:20.561Z,99110.94
2018-02-11T18:03:49.885Z,99117.86
2018-02-11T18:06:19.252Z,99114.70
2018-02-11T18:08:47.824Z,99114.80
2018-02-11T18:11:16.368Z,99124.23
2018-02-11T18:13:45.141Z,99128.05
2018-02-11T18:16:14.588Z,99125.05
2018-02-11T18:18:43.226Z,99133.17
2018-02-11T18:21:13.089Z,99135.94
2018-02-11T18:23:41.776Z,99141.63
2018-02-11T18:26:10.362Z,99146.90
2018-02-11T18:28:38.961Z,99147.16
2018-02-11T18:31:07.534Z,99144.55
2018-02-11T18:33:36.080Z,99149.23
2018-02-11T18:36:05.196Z,99153.38
2018-02-11T18:38:33.769Z,99153.28
2018-02-11T18:41:02.330Z,99160.77
2018-02-11T18:43:31.353Z,99154.84
2018-02-11T18:45:59.900Z,99163.58
2018-02-11T18:48:29.220Z,99166.89
2018-02-11T18:50:57.824Z,99170.14
2018-02-11T18:53:26.377Z,99171.42
2018-02-11T18:55:54.937Z,99170.08
2018-02-11T18:58:24.312Z,99165.98
2018-02-11T19:00:53.628Z,99176.59
2018-02-11T19:03:22.951Z,99180.73
2018-02-11T19:05:51.649Z,99189.94
2018-02-11T19:08:20.204Z,99191.41
2018-02-11T19:10:49.520Z,99190.56
2018-02-11T19:13:18.897Z,99195.03
2018-02-11T19:15:47.449Z,99192.23
2018-02-11T19:18:16.000Z,99198.61
2018-02-11T19:20:44.600Z,99202.44
2018-02-11T19:23:13.152Z,99209.30
2018-02-11T19:25:42.471Z,99205.05
2018-02-11T19:28:11.273Z,99208.33
2018-02-11T19:30:39.821Z,99209.74
2018-02-11T19:33:09.144Z,99216.03
2018-02-11T19:35:37.748Z,99224.94
2018-02-11T19:38:06.347Z,99222.11
2018-02-11T19:40:34.990Z,99222.50
2018-02-11T19:43:03.921Z,99233.38
2018-02-11T19:45:32.464Z,99227.17
2018-02-11T19:48:01.004Z,99238.37
2018-02-11T19:50:29.744Z,99228.64
2018-02-11T19:52:58.296Z,99228.59
2018-02-11T19:55:27.590Z,99232.17
2018-02-11T19:57:57.104Z,99230.55
2018-02-11T20:00:25.656Z,99237.66
2018-02-11T20:02:54.208Z,99233.58
2018-02-11T20:05:22.904Z,99233.50
2018-02-11T20:07:51.445Z,99237.63
2018-02-11T20:10:20.748Z,99243.67
2018-02-11T20:12:50.502Z,99244.45
2018-02-11T20:15:19.076Z,99245.64
2018-02-11T20:17:47.619Z,99245.25
2018-02-11T20:20:16.974Z,99247.55
2018-02-11T20:22:45.512Z,99249.27
2018-02-11T20:25:14.054Z,99253.33
2018-02-11T20:27:42.788Z,99258.66
2018-02-11T20:30:11.338Z,99252.84
2018-02-11T20:32:39.890Z,99254.27
2018-02-11T20:35:08.672Z,99262.78
2018-02-11T20:37:37.984Z,99262.61
2018-02-11T20:40:06.558Z,99262.07
2018-02-11T20:42:35.160Z,99264.20
2018-02-11T20:45:03.720Z,99266.45
2018-02-11T20:47:32.264Z,99267.44
2018-02-11T20:50:01.093Z,99270.35
2018-02-11T20:52:29.625Z,99274.33
2018-02-11T20:54:58.985Z,99277.52
2018-02-11T20:57:27.567Z,99273.16
2018-02-11T20:59:56.104Z,99280.56
2018-02-11T21:02:24.647Z,99279.13
2018-02-11T21:04:53.612Z,99278.23
2018-02-11T21:07:22.916Z,99285.06
2018-02-11T21:09:51.464Z,99277.45
2018-02-11T21:12:20.148Z,99279.19
2018-02-11T21:14:48.691Z,99281.09
2018-02-11T21:17:17.246Z,99281.09
2018-02-11T21:19:46.036Z,99285.09
2018-02-11T21:22:14.576Z,99282.06
2018-02-11T21:24:43.122Z,99288.72
2018-02-11T21:27:11.876Z,99288.18
2018-02-11T21:29:40.420Z,99290.25
2018-02-11T21:32:09.767Z,99291.13
2018-02-11T21:34:38.392Z,99292.15
2018-02-11T21:37:06.945Z,99298.72
2018-02-11T21:39:35.512Z,99299.63
2018-02-11T21:42:04.102Z,99289.84
2018-02-11T21:44:32.645Z,99302.23
2018-02-11T21:47:01.955Z,99303.69
2018-02-11T21:49:30.660Z,99298.25
2018-02-11T21:51:59.203Z,99301.52
2018-02-11T21:54:28.516Z,99302.66
2018-02-11T21:56:57.871Z,99308.45
2018-02-11T21:59:26.406Z,99314.42
2018-02-11T22:01:54.952Z,99310.68
2018-02-11T22:04:23.540Z,99322.13
2018-02-11T22:06:52.102Z,99315.67
2018-02-11T22:09:20.646Z,99316.70
2018-02-11T22:11:49.472Z,99319.03
2018-02-11T22:14:18.828Z,99313.95
2018-02-11T22:16:47.375Z,99312.05
2018-02-11T22:19:15.980Z,99313.45
2018-02-11T22:21:45.287Z,99313.52
2018-02-11T22:24:14.600Z,99309.80
2018-02-11T22:26:43.296Z,99312.50
2018-02-11T22:29:11.837Z,99311.62
2018-02-11T22:31:41.154Z,99314.27
2018-02-11T22:34:10.508Z,99312.48
2018-02-11T22:36:39.052Z,99310.03
2018-02-11T22:39:07.600Z,99310.91
2018-02-11T22:41:36.352Z,99312.97
2018-02-11T22:44:04.899Z,99316.41
2018-02-11T22:46:33.443Z,99314.88
2018-02-11T22:49:02.053Z,99315.91
2018-02-11T22:51:33.008Z,99316.01
2018-02-11T22:54:01.832Z,99311.80
2018-02-11T22:56:30.380Z,99314.78
2018-02-11T22:58:58.924Z,99315.37
2018-02-11T23:01:27.532Z,99323.47
2018-02-11T23:03:56.842Z,99320.36
2018-02-11T23:06:25.388Z,99315.05
2018-02-11T23:08:53.854Z,99323.16
2018-02-11T23:11:22.427Z,99324.34
2018-02-11T23:13:50.972Z,99319.36
2018-02-11T23:16:19.564Z,99321.08
2018-02-11T23:18:48.111Z,99323.17
2018-02-11T23:21:16.652Z,99326.11
2018-02-11T23:23:46.383Z,99322.85
2018-02-11T23:26:14.927Z,99322.67
2018-02-11T23:28:43.471Z,99329.59
2018-02-11T23:31:12.072Z,99327.85
2018-02-11T23:33:41.384Z,99332.80
2018-02-11T23:36:09.932Z,99334.86
2018-02-11T23:38:38.628Z,99336.61
2018-02-11T23:41:07.943Z,99338.81
2018-02-11T23:43:37.244Z,99342.03
2018-02-11T23:46:06.696Z,99347.58
2018-02-11T23:48:35.236Z,99343.34
2018-02-11T23:51:04.530Z,99341.91
2018-02-11T23:53:33.992Z,99344.64
2018-02-11T23:56:02.532Z,99345.88
2018-02-11T23:58:31.072Z,99348.16
